Time;durP1;ratioP1;P1;durP2;ratioP2;P2;SDS_P1;SDS_P2;PMS_P1;PMS_P2;Temp;Humidity;BMP_temperature;BMP_pressure;BME280_temperature;BME280_humidity;BME280_pressure;Samples;Min_cycle;Max_cycle;Signal;HPM_P1;HPM_P2
2023/01/29 00:00:38;;;;;;;;;43.25;30.00;;;;;2.84;60.99;102769.00;5079835;28;45354;-58
2023/01/29 00:03:04;;;;;;;;;49.50;30.25;;;;;2.86;60.65;102779.47;5078654;28;45305;-59
2023/01/29 00:05:29;;;;;;;;;61.25;41.75;;;;;2.84;60.96;102771.63;5044471;28;48414;-55
2023/01/29 00:07:55;;;;;;;;;48.25;37.50;;;;;2.83;60.82;102775.19;5079323;28;45506;-55
2023/01/29 00:10:21;;;;;;;;;39.00;30.25;;;;;2.78;61.07;102768.31;5079624;28;45342;-54
2023/01/29 00:12:47;;;;;;;;;40.00;33.25;;;;;2.77;60.73;102761.34;5079876;28;45458;-59
2023/01/29 00:15:12;;;;;;;;;39.75;33.50;;;;;2.80;60.30;102774.41;5079396;28;46197;-56
2023/01/29 00:17:37;;;;;;;;;42.50;30.75;;;;;2.78;60.78;102766.56;5079473;28;45359;-56
2023/01/29 00:20:03;;;;;;;;;37.25;31.75;;;;;2.74;61.27;102768.44;5079047;28;45577;-56
2023/01/29 00:22:29;;;;;;;;;55.00;40.75;;;;;2.75;61.85;102764.03;5079598;28;45292;-55
2023/01/29 00:24:54;;;;;;;;;61.25;44.75;;;;;2.74;61.16;102763.19;5079096;28;46875;-56
2023/01/29 00:27:20;;;;;;;;;65.50;44.75;;;;;2.75;61.88;102761.41;5061016;28;46016;-54
2023/01/29 00:30:07;;;;;;;;;62.75;45.25;;;;;2.76;61.97;102763.13;5079208;28;45285;-53
2023/01/29 00:32:31;;;;;;;;;54.50;37.75;;;;;2.75;61.54;102762.28;5079300;28;45370;-56
2023/01/29 00:34:56;;;;;;;;;50.25;44.00;;;;;2.76;61.57;102760.50;5078823;28;46098;-55
2023/01/29 00:37:21;;;;;;;;;54.00;38.00;;;;;2.69;61.44;102744.03;5078884;28;45313;-57
2023/01/29 00:39:47;;;;;;;;;47.00;34.25;;;;;2.77;62.00;102749.06;5079497;28;45333;-55
2023/01/29 00:44:56;;;;;;;;;51.00;39.50;;;;;2.77;62.05;102756.94;5079084;28;45492;-58
2023/01/29 00:47:32;;;;;;;;;45.75;33.00;;;;;2.77;61.32;102750.84;5078988;28;45235;-58
2023/01/29 00:49:58;;;;;;;;;49.75;36.25;;;;;2.78;61.56;102749.94;5078964;28;45266;-58
2023/01/29 00:52:24;;;;;;;;;57.00;41.50;;;;;2.77;61.65;102753.47;5079209;28;45255;-58
2023/01/29 00:54:53;;;;;;;;;48.50;42.50;;;;;2.78;61.87;102761.28;5078920;28;45404;-58
2023/01/29 00:57:19;;;;;;;;;34.50;31.00;;;;;2.78;61.82;102756.03;5078900;28;45390;-56
2023/01/29 00:59:44;;;;;;;;;54.25;42.50;;;;;2.75;62.11;102751.75;5078950;28;45260;-58
2023/01/29 01:04:53;;;;;;;;;66.50;43.25;;;;;2.63;61.70;102723.22;5078520;28;45280;-58
2023/01/29 01:07:19;;;;;;;;;56.50;35.75;;;;;2.78;62.17;102747.28;5078745;28;45271;-55
2023/01/29 01:12:28;;;;;;;;;45.75;31.00;;;;;2.74;61.93;102742.16;5079027;28;45297;-57
2023/01/29 01:14:54;;;;;;;;;50.25;37.25;;;;;2.74;62.29;102733.41;5078496;28;46524;-58
2023/01/29 01:17:19;;;;;;;;;47.50;36.50;;;;;2.74;61.93;102741.31;5078681;28;45336;-57
2023/01/29 01:19:44;;;;;;;;;45.50;34.25;;;;;2.73;61.86;102745.66;5078564;28;45331;-57
2023/01/29 01:22:10;;;;;;;;;50.75;40.25;;;;;2.74;62.42;102736.03;5078833;28;45265;-55
2023/01/29 01:24:36;;;;;;;;;57.00;43.50;;;;;2.66;62.57;102733.66;5078168;28;47093;-55
2023/01/29 01:27:01;;;;;;;;;56.50;40.25;;;;;2.72;62.43;102743.97;5078254;28;45427;-58
2023/01/29 01:29:26;;;;;;;;;55.75;40.75;;;;;2.74;62.27;102743.94;5078640;28;45268;-57
2023/01/29 01:31:52;;;;;;;;;52.50;42.50;;;;;2.72;62.27;102746.59;5078634;28;45428;-56
2023/01/29 01:34:18;;;;;;;;;58.75;41.50;;;;;2.73;61.95;102750.94;5077960;28;48856;-56
2023/01/29 01:36:43;;;;;;;;;49.25;40.00;;;;;2.73;62.29;102742.19;5078313;28;45518;-54
2023/01/29 01:39:09;;;;;;;;;43.50;36.50;;;;;2.73;62.05;102750.94;5078124;28;45505;-57
2023/01/29 01:41:34;;;;;;;;;43.25;34.50;;;;;2.72;62.87;102759.72;5078453;28;45539;-57
2023/01/29 01:44:02;;;;;;;;;60.25;34.50;;;;;2.71;62.28;102747.50;5077549;28;45963;-58
2023/01/29 01:46:30;;;;;;;;;48.75;37.50;;;;;2.71;62.39;102755.38;5078000;28;45415;-53
2023/01/29 01:49:14;;;;;;;;;54.75;40.00;;;;;2.70;62.56;102747.56;5078038;28;45442;-52
2023/01/29 01:51:45;;;;;;;;;47.25;40.50;;;;;2.70;62.26;102747.56;5078177;28;45209;-55
2023/01/29 01:54:30;;;;;;;;;57.00;37.00;;;;;2.69;62.65;102753.69;5077946;28;46208;-55
2023/01/29 01:57:08;;;;;;;;;35.75;26.75;;;;;2.69;62.88;102761.56;5078016;28;45470;-56
2023/01/29 01:59:36;;;;;;;;;41.75;34.50;;;;;2.62;62.97;102742.53;5077922;28;45374;-54
2023/01/29 02:10:17;;;;;;;;;45.75;34.50;;;;;2.66;62.91;102753.81;5077940;28;45284;-57
2023/01/29 02:12:44;;;;;;;;;52.00;42.25;;;;;2.66;63.33;102764.31;5077753;28;45489;-55
2023/01/29 02:15:11;;;;;;;;;52.75;40.75;;;;;2.65;63.25;102765.19;5077716;28;46059;-54
2023/01/29 02:17:37;;;;;;;;;48.50;35.00;;;;;2.63;62.40;102765.25;5077632;28;45385;-56
2023/01/29 02:20:16;;;;;;;;;60.50;44.00;;;;;2.62;63.33;102757.44;5077218;28;45460;-52
2023/01/29 02:23:01;;;;;;;;;60.25;43.25;;;;;2.60;62.96;102760.09;5078068;28;45212;-57
2023/01/29 02:25:54;;;;;;;;;47.50;36.25;;;;;2.60;63.82;102765.34;5077448;28;45388;-57
2023/01/29 02:28:37;;;;;;;;;47.00;35.75;;;;;2.56;63.33;102754.97;5077669;28;45269;-56
2023/01/29 02:31:34;;;;;;;;;55.25;42.00;;;;;2.57;63.38;102754.94;5077634;28;45368;-58
2023/01/29 02:34:21;;;;;;;;;56.25;38.25;;;;;2.58;62.92;102746.16;5015278;28;45408;-57
2023/01/29 02:37:05;;;;;;;;;60.00;42.75;;;;;2.58;63.84;102755.81;5014767;28;45350;-55
2023/01/29 02:39:55;;;;;;;;;54.00;40.00;;;;;2.58;63.51;102761.06;5014741;28;45381;-55
2023/01/29 02:42:31;;;;;;;;;57.75;42.50;;;;;2.58;63.26;102766.31;5014711;28;45465;-55
2023/01/29 02:45:13;;;;;;;;;56.50;44.50;;;;;2.58;63.61;102761.06;5015081;28;45536;-52
2023/01/29 02:47:40;;;;;;;;;51.50;37.25;;;;;2.59;63.46;102755.75;5014558;28;45993;-57
2023/01/29 02:50:20;;;;;;;;;42.50;32.75;;;;;2.58;63.80;102756.66;5014420;28;45325;-56
2023/01/29 02:53:11;;;;;;;;;53.50;37.25;;;;;2.58;63.25;102745.31;5014682;28;45410;-53
2023/01/29 02:55:43;;;;;;;;;37.25;29.25;;;;;2.47;63.24;102727.22;5013639;28;45502;-55
2023/01/29 02:58:23;;;;;;;;;57.00;43.50;;;;;2.56;63.52;102740.06;5014560;28;46312;-57
2023/01/29 03:00:51;;;;;;;;;51.50;36.25;;;;;2.55;63.36;102733.09;5013504;28;45359;-56
2023/01/29 03:03:16;;;;;;;;;38.75;30.50;;;;;2.55;63.46;102729.63;5014698;28;45311;-57
2023/01/29 03:05:49;;;;;;;;;46.50;37.50;;;;;2.55;63.73;102719.09;5014583;28;45312;-57
2023/01/29 03:08:20;;;;;;;;;43.25;35.00;;;;;2.49;63.80;102709.66;5014056;28;46260;-54
2023/01/29 03:11:05;;;;;;;;;52.50;40.00;;;;;2.53;64.02;102710.41;5038841;28;45350;-55
2023/01/29 03:13:39;;;;;;;;;50.25;39.50;;;;;2.54;64.07;102715.63;5077254;28;45320;-58
2023/01/29 03:16:29;;;;;;;;;47.50;37.00;;;;;2.52;63.66;102720.06;5077284;28;45308;-57
2023/01/29 03:19:07;;;;;;;;;54.25;39.25;;;;;2.51;63.85;102718.34;5076556;28;45489;-56
2023/01/29 03:22:00;;;;;;;;;42.75;27.25;;;;;2.53;63.60;102721.78;5076522;28;45510;-56
2023/01/29 03:32:59;;;;;;;;;48.00;41.50;;;;;2.45;64.02;102715.91;5076652;28;45389;-55
2023/01/29 03:35:34;;;;;;;;;90.75;63.00;;;;;2.48;64.53;102719.28;5076723;28;45331;-55
2023/01/29 03:38:01;;;;;;;;;81.75;54.00;;;;;2.48;64.82;102713.16;5076705;28;45254;-56
2023/01/29 03:40:32;;;;;;;;;69.00;45.00;;;;;2.39;64.39;102692.44;5076163;28;46827;-56
2023/01/29 03:43:06;;;;;;;;;67.25;46.00;;;;;2.48;64.14;102721.03;5076639;28;45258;-56
2023/01/29 03:45:41;;;;;;;;;56.00;41.00;;;;;2.47;64.21;102721.97;5076663;28;45412;-57
2023/01/29 03:48:21;;;;;;;;;53.50;41.50;;;;;2.46;64.29;102721.09;5076710;28;45376;-52
2023/01/29 03:51:06;;;;;;;;;59.50;45.00;;;;;2.44;64.25;102720.31;5076191;28;46405;-54
2023/01/29 03:53:49;;;;;;;;;59.75;44.50;;;;;2.34;64.45;102702.22;5076268;28;45439;-57
2023/01/29 03:56:23;;;;;;;;;57.75;41.50;;;;;2.44;64.87;102722.94;5076418;28;45305;-55
2023/01/29 03:58:59;;;;;;;;;54.00;44.00;;;;;2.43;64.61;102722.97;5076547;28;45222;-58
2023/01/29 04:01:40;;;;;;;;;57.50;39.25;;;;;2.44;65.13;102714.16;5076071;28;45344;-55
2023/01/29 04:04:26;;;;;;;;;52.25;43.00;;;;;2.43;64.68;102722.97;5075382;28;45437;-56
2023/01/29 04:06:57;;;;;;;;;61.75;40.50;;;;;2.43;64.94;102715.94;5076822;28;45246;-56
2023/01/29 04:09:30;;;;;;;;;66.50;43.75;;;;;2.41;65.12;102706.41;5079929;28;45358;-57
2023/01/29 04:12:08;;;;;;;;;52.00;42.50;;;;;2.40;64.80;102712.53;5079576;28;47188;-57
2023/01/29 04:14:35;;;;;;;;;54.25;42.00;;;;;2.39;64.73;102719.56;5079705;28;45260;-58
2023/01/29 04:17:09;;;;;;;;;58.75;44.25;;;;;2.38;65.34;102717.84;5078828;28;45433;-59
2023/01/29 04:19:35;;;;;;;;;53.50;34.50;;;;;2.38;65.06;102717.84;5079126;28;45402;-53
2023/01/29 04:22:16;;;;;;;;;52.00;38.75;;;;;2.35;64.82;102723.19;5079435;28;45508;-57
2023/01/29 04:24:42;;;;;;;;;55.50;41.75;;;;;2.37;65.24;102710.03;5061225;28;45242;-56
2023/01/29 04:27:30;;;;;;;;;48.50;35.00;;;;;2.36;65.18;102717.03;5079481;28;45517;-58
2023/01/29 04:30:29;;;;;;;;;57.25;43.75;;;;;2.35;65.16;102717.06;5079759;28;45406;-57
2023/01/29 04:33:16;;;;;;;;;60.00;45.00;;;;;2.35;65.12;102722.31;5079237;28;46096;-58
2023/01/29 04:35:41;;;;;;;;;42.50;36.00;;;;;2.34;65.39;102720.63;5078897;28;45458;-56
2023/01/29 04:38:28;;;;;;;;;66.75;42.00;;;;;2.34;65.81;102725.88;5079166;28;45277;-51
2023/01/29 04:41:10;;;;;;;;;53.75;44.50;;;;;2.32;65.02;102722.41;5079283;28;45285;-57
2023/01/29 04:44:01;;;;;;;;;48.50;36.50;;;;;2.33;65.49;102732.03;5079025;28;46409;-56
2023/01/29 04:46:40;;;;;;;;;46.75;41.00;;;;;2.33;66.04;102726.78;5079121;28;45502;-55
2023/01/29 04:49:33;;;;;;;;;58.75;38.50;;;;;2.31;65.15;102732.06;5079347;28;45365;-57
2023/01/29 04:52:08;;;;;;;;;54.00;38.00;;;;;2.30;65.62;102727.72;5079217;28;45438;-57
2023/01/29 04:54:48;;;;;;;;;57.00;45.50;;;;;2.30;65.75;102734.75;5078940;28;46304;-58
2023/01/29 04:57:17;;;;;;;;;52.00;45.75;;;;;2.26;65.68;102728.72;5078902;28;45467;-55
2023/01/29 04:59:52;;;;;;;;;65.50;44.75;;;;;2.29;65.89;102733.03;5078933;28;45261;-56
2023/01/29 05:02:20;;;;;;;;;55.00;40.25;;;;;2.28;65.51;102742.66;5079109;28;45367;-57
2023/01/29 05:04:47;;;;;;;;;47.75;44.75;;;;;2.12;65.43;102715.13;5078712;28;46267;-56
2023/01/29 05:07:14;;;;;;;;;60.50;45.00;;;;;2.27;65.86;102732.19;5060424;28;45457;-56
2023/01/29 05:09:43;;;;;;;;;60.50;43.25;;;;;2.26;65.91;102736.59;5078944;28;45366;-54
2023/01/29 05:12:11;;;;;;;;;47.50;36.75;;;;;2.28;65.46;102734.78;5078993;28;45362;-57
2023/01/29 05:14:39;;;;;;;;;58.50;38.00;;;;;2.19;65.75;102722.78;5078375;28;46098;-56
2023/01/29 05:17:13;;;;;;;;;58.00;45.50;;;;;2.23;66.06;102734.94;5078622;28;45336;-57
2023/01/29 05:19:38;;;;;;;;;58.00;40.25;;;;;2.18;65.59;102714.94;5077645;28;45251;-57
2023/01/29 05:22:05;;;;;;;;;57.75;39.50;;;;;2.22;66.02;102729.69;5078507;28;45451;-55
2023/01/29 05:24:30;;;;;;;;;50.00;43.75;;;;;2.20;65.81;102724.50;5078396;28;46054;-57
2023/01/29 05:29:43;;;;;;;;;50.50;39.75;;;;;2.21;66.07;102723.59;5078553;28;45273;-57
2023/01/29 05:32:09;;;;;;;;;55.50;42.00;;;;;2.23;66.06;102719.16;5078490;28;45249;-58
2023/01/29 05:34:34;;;;;;;;;55.25;40.00;;;;;2.22;66.07;102719.19;5078252;28;45209;-56
2023/01/29 05:36:59;;;;;;;;;48.50;37.25;;;;;2.16;66.05;102703.63;5077703;28;45290;-54
2023/01/29 05:39:25;;;;;;;;;54.25;41.25;;;;;2.18;66.20;102713.16;5077003;28;46429;-54
2023/01/29 05:41:50;;;;;;;;;56.25;41.25;;;;;2.16;65.99;102704.50;5078364;28;45249;-58
2023/01/29 05:44:15;;;;;;;;;49.75;35.25;;;;;2.20;66.45;102719.25;5078015;28;46292;-54
2023/01/29 05:46:41;;;;;;;;;64.75;39.25;;;;;2.21;66.03;102731.47;5077997;28;45402;-54
2023/01/29 05:49:06;;;;;;;;;60.75;42.75;;;;;2.21;66.40;102727.97;5078275;28;45186;-54
2023/01/29 05:51:31;;;;;;;;;57.50;38.00;;;;;2.20;66.29;102729.75;5077679;28;45269;-58
2023/01/29 05:53:57;;;;;;;;;49.50;40.50;;;;;2.17;66.28;102724.59;5078068;28;45906;-58
2023/01/29 05:56:22;;;;;;;;;45.25;42.50;;;;;2.14;66.02;102714.16;5077947;28;45202;-55
2023/01/29 05:58:47;;;;;;;;;49.25;38.00;;;;;2.17;66.70;102723.72;5077986;28;45214;-54
2023/01/29 06:01:15;;;;;;;;;53.00;41.50;;;;;2.17;66.19;102721.97;5078159;28;45375;-57
2023/01/29 06:03:41;;;;;;;;;50.50;43.50;;;;;2.07;66.10;102711.78;5077829;28;45417;-54
2023/01/29 06:06:06;;;;;;;;;57.25;40.50;;;;;2.18;66.36;102726.28;5077689;28;45433;-56
2023/01/29 06:08:32;;;;;;;;;69.50;43.75;;;;;2.09;66.58;102709.97;5077833;28;45367;-55
2023/01/29 06:10:57;;;;;;;;;49.00;38.75;;;;;2.16;66.45;102730.75;5077945;28;45266;-55
2023/01/29 06:13:22;;;;;;;;;61.75;46.25;;;;;2.14;66.42;102726.44;5077672;28;46319;-53
2023/01/29 06:15:48;;;;;;;;;50.00;36.75;;;;;2.15;66.72;102728.16;5077552;28;45320;-57
2023/01/29 06:18:13;;;;;;;;;61.50;44.50;;;;;2.12;66.26;102723.84;5077825;28;45462;-54
2023/01/29 06:20:39;;;;;;;;;48.00;41.50;;;;;2.10;66.66;102728.28;5077755;28;45384;-55
2023/01/29 06:23:04;;;;;;;;;48.50;42.00;;;;;2.13;66.43;102740.47;5077268;28;45481;-57
2023/01/29 06:25:30;;;;;;;;;55.50;44.50;;;;;2.12;66.79;102747.50;5077435;28;45467;-55
2023/01/29 06:27:56;;;;;;;;;58.00;45.25;;;;;2.12;66.56;102746.63;5077620;28;45358;-55
2023/01/29 06:30:21;;;;;;;;;51.25;43.00;;;;;2.12;66.79;102747.50;5077364;28;45175;-55
2023/01/29 06:32:46;;;;;;;;;64.25;48.00;;;;;2.09;66.79;102744.94;5077418;28;45375;-54
2023/01/29 06:35:12;;;;;;;;;56.50;45.00;;;;;2.11;66.74;102748.41;5077379;28;45422;-57
2023/01/29 06:37:37;;;;;;;;;56.00;41.50;;;;;2.11;66.59;102750.16;5077231;28;45426;-58
2023/01/29 06:40:03;;;;;;;;;47.25;42.50;;;;;2.09;66.61;102754.59;5077713;28;45499;-54
2023/01/29 06:42:28;;;;;;;;;56.50;43.25;;;;;2.10;66.92;102759.78;5077130;28;46258;-56
2023/01/29 06:44:54;;;;;;;;;63.50;45.00;;;;;2.08;66.61;102755.50;5077357;28;45468;-53
2023/01/29 06:47:20;;;;;;;;;58.00;45.75;;;;;2.06;66.55;102752.91;5077315;28;45450;-57
2023/01/29 06:49:45;;;;;;;;;61.25;45.25;;;;;2.05;66.70;102764.31;5077563;28;45398;-56
2023/01/29 06:52:10;;;;;;;;;65.00;45.75;;;;;2.01;66.75;102760.03;5077127;28;47226;-58
2023/01/29 06:54:36;;;;;;;;;58.00;45.00;;;;;2.01;67.05;102749.53;5077075;28;45345;-55
2023/01/29 06:57:01;;;;;;;;;61.00;44.50;;;;;1.96;67.12;102754.06;5077318;28;45344;-56
2023/01/29 06:59:26;;;;;;;;;57.50;44.00;;;;;1.95;67.63;102760.22;5077372;28;45384;-53
2023/01/29 07:01:52;;;;;;;;;58.50;46.00;;;;;1.90;67.57;102746.38;5076864;28;45399;-56
2023/01/29 07:04:17;;;;;;;;;56.00;48.00;;;;;1.85;67.44;102756.09;5077015;28;45347;-55
2023/01/29 07:06:42;;;;;;;;;61.00;42.25;;;;;1.83;68.02;102757.94;5076722;28;45444;-56
2023/01/29 07:09:11;;;;;;;;;50.25;39.50;;;;;1.79;67.69;102762.41;5077512;28;45379;-55
2023/01/29 07:11:36;;;;;;;;;59.75;46.00;;;;;1.76;67.83;102762.47;5076816;28;45271;-56
2023/01/29 07:14:02;;;;;;;;;69.00;51.50;;;;;1.71;68.51;102764.34;5076683;28;45380;-56
2023/01/29 07:16:27;;;;;;;;;64.00;46.75;;;;;1.61;68.19;102765.50;5077114;28;45293;-55
2023/01/29 07:18:53;;;;;;;;;56.75;44.50;;;;;1.57;68.16;102769.97;5076890;28;45427;-57
2023/01/29 07:21:18;;;;;;;;;50.00;40.50;;;;;1.55;68.58;102763.03;5076647;28;46021;-54
2023/01/29 07:23:43;;;;;;;;;52.00;44.00;;;;;1.51;68.80;102767.47;5076714;28;45339;-56
2023/01/29 07:26:09;;;;;;;;;66.25;46.50;;;;;1.40;69.03;102748.56;5076855;28;45699;-56
2023/01/29 07:28:36;;;;;;;;;54.50;45.25;;;;;1.45;68.82;102770.28;5076899;28;45561;-56
2023/01/29 07:31:02;;;;;;;;;61.00;47.00;;;;;1.44;68.81;102760.69;5076547;28;46393;-55
2023/01/29 07:33:27;;;;;;;;;58.75;46.00;;;;;1.43;69.09;102761.56;5076745;28;45536;-54
2023/01/29 07:35:53;;;;;;;;;76.50;46.25;;;;;1.36;68.99;102757.41;5076656;28;45376;-58
2023/01/29 07:38:19;;;;;;;;;52.25;41.25;;;;;1.40;68.84;102761.66;5074061;28;45389;-56
2023/01/29 07:40:44;;;;;;;;;53.75;40.25;;;;;1.38;69.40;102761.69;5076366;28;46029;-54
2023/01/29 07:43:10;;;;;;;;;64.25;47.00;;;;;1.34;69.23;102756.56;5079216;28;45321;-55
2023/01/29 07:45:37;;;;;;;;;57.50;44.00;;;;;1.37;68.96;102765.22;5080281;28;45222;-54
2023/01/29 07:48:09;;;;;;;;;55.75;41.50;;;;;1.38;68.85;102771.31;5080415;28;45238;-57
2023/01/29 07:50:34;;;;;;;;;53.50;40.50;;;;;1.36;69.38;102773.13;5079895;28;46011;-56
2023/01/29 07:53:00;;;;;;;;;63.50;46.25;;;;;1.23;69.58;102755.06;5079974;28;45171;-57
2023/01/29 07:55:26;;;;;;;;;49.25;34.00;;;;;1.39;69.18;102778.28;5080077;28;45305;-56
2023/01/29 07:57:59;;;;;;;;;39.25;39.25;;;;;1.36;69.19;102767.88;5080182;28;45277;-56
2023/01/29 08:00:24;;;;;;;;;68.00;46.75;;;;;1.45;69.43;102776.38;5078945;27;46019;-56
2023/01/29 08:02:50;;;;;;;;;69.25;49.50;;;;;1.45;69.08;102770.28;5079698;28;45482;-54
2023/01/29 08:05:15;;;;;;;;;58.25;44.25;;;;;1.52;68.75;102774.47;5079953;28;45377;-54
2023/01/29 08:07:40;;;;;;;;;65.75;47.50;;;;;1.54;68.96;102774.41;5078426;28;45630;-56
2023/01/29 08:10:06;;;;;;;;;69.50;46.00;;;;;1.62;68.76;102762.84;5079394;28;45400;-56
2023/01/29 08:12:31;;;;;;;;;64.50;45.00;;;;;1.71;68.55;102770.47;5079512;27;45278;-56
2023/01/29 08:14:57;;;;;;;;;67.00;49.75;;;;;1.74;68.31;102765.13;5079627;28;45222;-57
2023/01/29 08:17:22;;;;;;;;;70.00;48.50;;;;;1.84;68.33;102768.38;5079936;28;45281;-55
2023/01/29 08:19:47;;;;;;;;;70.25;51.50;;;;;1.90;67.68;102772.63;5079199;28;47020;-55
2023/01/29 08:22:15;;;;;;;;;66.25;49.00;;;;;1.96;68.13;102773.28;5079269;27;45311;-53
2023/01/29 08:24:40;;;;;;;;;69.50;52.50;;;;;2.06;67.58;102767.78;5079290;27;45389;-57
2023/01/29 08:27:06;;;;;;;;;74.75;52.50;;;;;2.11;67.35;102768.56;5079611;27;45424;-56
2023/01/29 08:29:31;;;;;;;;;69.00;51.00;;;;;2.14;67.22;102761.41;5079394;28;46135;-55
2023/01/29 08:31:57;;;;;;;;;73.25;52.50;;;;;2.24;67.00;102762.03;5079269;27;45351;-53
2023/01/29 08:34:22;;;;;;;;;69.50;48.75;;;;;2.31;66.73;102771.44;5079369;28;45270;-55
2023/01/29 08:36:47;;;;;;;;;50.75;46.00;;;;;2.38;66.66;102764.25;5079622;27;45386;-56
2023/01/29 08:39:13;;;;;;;;;66.00;45.00;;;;;2.48;66.39;102777.06;5078915;28;45405;-57
2023/01/29 08:41:38;;;;;;;;;61.50;48.00;;;;;2.66;66.45;102759.06;5079074;28;45483;-55
2023/01/29 08:44:04;;;;;;;;;65.00;51.50;;;;;2.85;66.14;102768.09;5079384;27;45352;-57
2023/01/29 08:46:30;;;;;;;;;70.00;49.50;;;;;2.91;65.41;102775.81;5079279;27;45513;-54
2023/01/29 08:48:55;;;;;;;;;66.50;51.75;;;;;3.03;64.82;102765.78;5078528;28;45256;-57
2023/01/29 08:51:23;;;;;;;;;69.00;48.00;;;;;3.11;64.60;102769.03;5078919;28;45609;-55
2023/01/29 08:53:48;;;;;;;;;71.75;49.00;;;;;3.19;64.37;102767.03;5077732;28;45321;-55
2023/01/29 08:56:15;;;;;;;;;66.25;52.00;;;;;3.20;63.75;102779.25;5079257;28;45523;-58
2023/01/29 08:58:40;;;;;;;;;70.00;47.75;;;;;3.16;64.50;102790.78;5073171;28;46049;-57
2023/01/29 09:01:08;;;;;;;;;72.25;52.00;;;;;3.18;64.56;102787.22;5077147;27;45321;-55
2023/01/29 09:03:34;;;;;;;;;66.00;49.25;;;;;3.24;64.69;102801.94;5079049;28;45483;-54
2023/01/29 09:05:59;;;;;;;;;74.50;54.00;;;;;3.23;63.53;102808.97;5079411;27;45410;-56
2023/01/29 09:08:24;;;;;;;;;68.00;52.00;;;;;3.14;64.43;102804.00;5078546;28;46450;-53
2023/01/29 09:10:50;;;;;;;;;76.25;54.75;;;;;3.17;64.58;102813.56;5078677;27;46107;-55
2023/01/29 09:13:15;;;;;;;;;67.00;50.50;;;;;3.29;64.26;102810.56;5078942;28;45411;-56
2023/01/29 09:15:40;;;;;;;;;76.75;53.50;;;;;3.41;64.52;102802.28;5078914;27;45350;-57
2023/01/29 09:18:06;;;;;;;;;64.00;48.75;;;;;3.48;63.32;102803.78;5078582;28;48569;-57
2023/01/29 09:20:31;;;;;;;;;73.00;50.75;;;;;3.56;63.22;102800.88;5078517;27;45480;-59
2023/01/29 09:22:58;;;;;;;;;71.25;52.75;;;;;3.63;63.05;102791.03;5060233;28;45270;-57
2023/01/29 09:25:23;;;;;;;;;68.75;52.00;;;;;3.71;63.71;102805.66;5078858;28;45239;-54
2023/01/29 09:27:49;;;;;;;;;65.00;49.00;;;;;3.83;62.77;102806.97;5078286;27;46253;-55
2023/01/29 09:30:15;;;;;;;;;72.75;51.00;;;;;3.87;62.58;102773.50;5078268;28;45385;-56
2023/01/29 09:32:40;;;;;;;;;65.00;48.50;;;;;4.56;62.87;102800.00;5078408;27;45347;-56
2023/01/29 09:35:06;;;;;;;;;75.75;53.00;;;;;6.23;58.24;102791.38;5078554;27;45444;-57
2023/01/29 09:37:31;;;;;;;;;62.00;50.75;;;;;8.33;55.53;102779.28;5077956;28;45462;-56
2023/01/29 09:39:56;;;;;;;;;72.00;49.75;;;;;9.95;50.58;102778.03;5076353;27;49389;-59
2023/01/29 09:42:34;;;;;;;;;65.00;52.75;;;;;11.16;47.95;102770.38;5077919;28;50027;-59
2023/01/29 09:45:13;;;;;;;;;66.50;51.25;;;;;12.21;47.37;102778.38;5078543;28;45229;-60
2023/01/29 09:47:38;;;;;;;;;77.50;51.50;;;;;13.11;42.99;102767.50;5077163;27;45319;-57
2023/01/29 09:50:04;;;;;;;;;67.25;52.75;;;;;13.73;42.34;102764.56;5078180;28;45298;-51
2023/01/29 09:52:45;;;;;;;;;70.25;49.25;;;;;14.11;39.83;102766.94;5078155;28;45650;-60
2023/01/29 09:55:34;;;;;;;;;68.25;51.50;;;;;14.41;39.29;102769.06;5078103;28;45329;-58
2023/01/29 09:58:03;;;;;;;;;62.75;48.75;;;;;14.66;39.21;102764.41;5078051;28;46330;-61
2023/01/29 10:00:39;;;;;;;;;59.50;46.00;;;;;14.93;39.81;102777.41;5077608;27;45369;-56
2023/01/29 10:03:16;;;;;;;;;64.00;48.50;;;;;15.56;37.91;102764.97;5077580;27;45390;-59
2023/01/29 10:06:11;;;;;;;;;63.75;47.50;;;;;15.92;37.24;102768.19;5077447;28;45234;-57
2023/01/29 10:09:01;;;;;;;;;59.75;47.25;;;;;16.17;36.10;102769.59;5077324;28;47285;-51
2023/01/29 10:11:42;;;;;;;;;62.00;47.75;;;;;16.51;35.43;102772.00;5077525;27;45373;-54
2023/01/29 10:14:37;;;;;;;;;56.25;45.75;;;;;16.71;36.86;102771.91;5077740;28;45265;-53
2023/01/29 10:17:39;;;;;;;;;65.00;50.25;;;;;16.34;35.08;102754.69;4995375;28;45396;-58
2023/01/29 10:20:50;;;;;;;;;63.25;44.00;;;;;16.74;35.27;102756.56;4994780;28;46342;-58
2023/01/29 10:23:37;;;;;;;;;61.25;46.75;;;;;17.11;33.14;102751.38;4995206;28;45434;-55
2023/01/29 10:26:02;;;;;;;;;64.75;47.75;;;;;17.43;32.98;102743.00;4995009;28;45524;-53
2023/01/29 10:28:42;;;;;;;;;66.75;48.00;;;;;17.40;33.88;102748.66;4995148;28;45527;-60
2023/01/29 10:31:16;;;;;;;;;61.75;46.50;;;;;17.09;33.62;102746.13;4994918;28;46961;-60
2023/01/29 10:33:50;;;;;;;;;63.25;46.75;;;;;16.70;36.38;102737.13;4994907;28;45348;-61
2023/01/29 10:36:22;;;;;;;;;65.00;49.50;;;;;16.74;34.33;102735.06;4995044;28;45292;-60
2023/01/29 10:38:50;;;;;;;;;63.25;47.50;;;;;16.85;33.47;102734.91;4994534;28;45513;-58
2023/01/29 10:41:23;;;;;;;;;60.50;47.25;;;;;17.19;32.62;102725.47;4993711;28;46342;-62
2023/01/29 10:44:12;;;;;;;;;53.00;44.00;;;;;16.61;33.80;102717.31;4994945;28;45428;-63
2023/01/29 10:46:43;;;;;;;;;56.00;42.25;;;;;16.64;33.89;102706.31;4994893;28;45389;-63
2023/01/29 10:49:54;;;;;;;;;63.25;46.75;;;;;16.73;34.16;102706.47;4995048;28;45427;-64
2023/01/29 10:52:45;;;;;;;;;59.00;44.25;;;;;16.78;34.05;102704.22;4995463;28;47503;-63
2023/01/29 10:55:23;;;;;;;;;57.75;43.00;;;;;17.23;33.38;102704.50;5051376;28;45524;-64
2023/01/29 10:58:07;;;;;;;;;60.00;45.50;;;;;16.67;33.32;102714.06;5056641;28;45317;-55
2023/01/29 11:00:38;;;;;;;;;60.00;47.00;;;;;15.51;34.93;102710.03;5056755;28;45576;-55
2023/01/29 11:03:15;;;;;;;;;62.00;46.50;;;;;14.62;36.54;102712.06;5055966;28;47727;-54
2023/01/29 11:05:50;;;;;;;;;55.75;42.25;;;;;14.17;37.15;102696.03;5055797;28;45246;-54
2023/01/29 11:08:19;;;;;;;;;53.75;42.75;;;;;14.08;38.41;102704.81;5056607;28;45450;-56
2023/01/29 11:11:02;;;;;;;;;66.00;46.75;;;;;14.05;39.01;102713.91;5056175;28;45372;-55
2023/01/29 11:13:37;;;;;;;;;56.50;44.75;;;;;14.16;40.59;102705.91;5056267;28;46284;-57
2023/01/29 11:16:04;;;;;;;;;57.75;42.75;;;;;14.17;38.89;102706.75;5056196;28;45437;-50
2023/01/29 11:18:57;;;;;;;;;63.00;43.25;;;;;14.03;38.42;102693.59;5059878;28;45568;-55
2023/01/29 11:21:24;;;;;;;;;57.00;43.50;;;;;14.16;38.51;102692.50;5060156;28;45227;-57
2023/01/29 11:24:04;;;;;;;;;64.25;45.50;;;;;14.33;38.01;102690.31;5059626;28;45963;-57
2023/01/29 11:26:35;;;;;;;;;55.25;42.00;;;;;14.60;39.91;102673.84;5059897;28;45471;-58
2023/01/29 11:29:00;;;;;;;;;57.00;43.25;;;;;14.95;37.18;102677.13;5058673;28;45335;-59
2023/01/29 11:31:34;;;;;;;;;58.00;43.75;;;;;15.45;36.94;102680.03;5060397;28;45368;-58
2023/01/29 11:34:05;;;;;;;;;55.50;42.75;;;;;15.84;36.77;102666.88;5059608;28;45401;-60
2023/01/29 11:36:37;;;;;;;;;61.50;43.00;;;;;16.19;35.93;102668.28;5059953;28;45229;-58
2023/01/29 11:39:20;;;;;;;;;58.75;44.50;;;;;15.91;36.76;102669.88;5059706;28;45383;-61
2023/01/29 11:41:51;;;;;;;;;59.00;44.00;;;;;16.14;35.32;102663.34;5059849;28;45408;-60
2023/01/29 11:44:23;;;;;;;;;60.75;42.50;;;;;16.27;35.01;102662.25;5059600;28;46342;-59
2023/01/29 11:46:49;;;;;;;;;57.25;43.00;;;;;16.01;34.62;102649.28;5041571;28;45955;-58
2023/01/29 11:49:29;;;;;;;;;59.00;44.25;;;;;15.99;35.93;102651.25;5059337;28;45393;-58
2023/01/29 11:51:57;;;;;;;;;57.75;42.00;;;;;15.78;35.22;102643.25;5059960;28;45494;-59
2023/01/29 11:54:27;;;;;;;;;58.75;44.00;;;;;15.26;35.83;102633.50;5059407;28;47123;-59
2023/01/29 11:56:53;;;;;;;;;62.00;47.00;;;;;14.60;36.61;102649.75;5059409;28;45358;-59
2023/01/29 11:59:47;;;;;;;;;57.00;42.75;;;;;13.75;38.68;102654.81;5057084;28;45434;-61
2023/01/29 12:02:39;;;;;;;;;56.75;44.50;;;;;13.00;39.26;102656.06;5057057;28;45413;-60